sensor_id;sensor_type;location;lat;lon;timestamp;P1;durP1;ratioP1;P2;durP2;ratioP2
58697;SDS011;44475;53.206;-6.106;2022-11-04T00:01:59;4.10;;;2.03;;
58697;SDS011;44475;53.206;-6.106;2022-11-04T00:04:27;3.58;;;1.98;;
58697;SDS011;44475;53.206;-6.106;2022-11-04T00:06:55;3.00;;;1.90;;
58697;SDS011;44475;53.206;-6.106;2022-11-04T00:09:29;3.42;;;2.20;;
58697;SDS011;44475;53.206;-6.106;2022-11-04T00:11:55;4.13;;;2.00;;
58697;SDS011;44475;53.206;-6.106;2022-11-04T00:14:41;3.40;;;1.90;;
58697;SDS011;44475;53.206;-6.106;2022-11-04T00:17:09;3.03;;;1.77;;
58697;SDS011;44475;53.206;-6.106;2022-11-04T00:19:49;4.07;;;1.88;;
58697;SDS011;44475;53.206;-6.106;2022-11-04T00:22:36;3.67;;;2.13;;
58697;SDS011;44475;53.206;-6.106;2022-11-04T00:25:23;5.10;;;1.70;;
58697;SDS011;44475;53.206;-6.106;2022-11-04T00:28:15;4.20;;;1.77;;
58697;SDS011;44475;53.206;-6.106;2022-11-04T00:31:22;4.47;;;2.00;;
58697;SDS011;44475;53.206;-6.106;2022-11-04T00:34:06;3.10;;;1.83;;
58697;SDS011;44475;53.206;-6.106;2022-11-04T00:36:33;2.85;;;1.80;;
58697;SDS011;44475;53.206;-6.106;2022-11-04T00:38:59;3.80;;;2.00;;
58697;SDS011;44475;53.206;-6.106;2022-11-04T00:41:26;4.68;;;2.00;;
58697;SDS011;44475;53.206;-6.106;2022-11-04T00:46:21;2.25;;;1.67;;
58697;SDS011;44475;53.206;-6.106;2022-11-04T00:48:47;3.15;;;2.00;;
58697;SDS011;44475;53.206;-6.106;2022-11-04T00:51:14;3.15;;;1.90;;
58697;SDS011;44475;53.206;-6.106;2022-11-04T00:53:40;3.17;;;1.83;;
58697;SDS011;44475;53.206;-6.106;2022-11-04T00:56:06;2.95;;;1.90;;
58697;SDS011;44475;53.206;-6.106;2022-11-04T00:58:33;2.85;;;1.83;;
58697;SDS011;44475;53.206;-6.106;2022-11-04T01:00:59;2.70;;;1.80;;
58697;SDS011;44475;53.206;-6.106;2022-11-04T01:03:30;3.40;;;2.00;;
58697;SDS011;44475;53.206;-6.106;2022-11-04T01:05:57;3.60;;;2.03;;
58697;SDS011;44475;53.206;-6.106;2022-11-04T01:08:23;3.80;;;2.08;;
58697;SDS011;44475;53.206;-6.106;2022-11-04T01:10:49;3.53;;;2.10;;
58697;SDS011;44475;53.206;-6.106;2022-11-04T01:13:16;3.30;;;1.77;;
58697;SDS011;44475;53.206;-6.106;2022-11-04T01:15:42;3.88;;;1.90;;
58697;SDS011;44475;53.206;-6.106;2022-11-04T01:18:08;3.78;;;2.00;;
58697;SDS011;44475;53.206;-6.106;2022-11-04T01:20:34;2.70;;;1.80;;
58697;SDS011;44475;53.206;-6.106;2022-11-04T01:23:00;2.90;;;1.77;;
58697;SDS011;44475;53.206;-6.106;2022-11-04T01:25:27;2.88;;;1.65;;
58697;SDS011;44475;53.206;-6.106;2022-11-04T01:27:54;2.67;;;1.90;;
58697;SDS011;44475;53.206;-6.106;2022-11-04T01:30:20;3.38;;;2.00;;
58697;SDS011;44475;53.206;-6.106;2022-11-04T01:32:46;3.00;;;1.90;;
58697;SDS011;44475;53.206;-6.106;2022-11-04T01:35:13;2.75;;;1.85;;
58697;SDS011;44475;53.206;-6.106;2022-11-04T01:37:39;2.45;;;1.63;;
58697;SDS011;44475;53.206;-6.106;2022-11-04T01:40:05;4.10;;;1.90;;
58697;SDS011;44475;53.206;-6.106;2022-11-04T01:42:32;2.95;;;1.77;;
58697;SDS011;44475;53.206;-6.106;2022-11-04T01:44:59;4.63;;;1.80;;
58697;SDS011;44475;53.206;-6.106;2022-11-04T01:47:34;3.10;;;1.90;;
58697;SDS011;44475;53.206;-6.106;2022-11-04T01:50:08;3.20;;;2.10;;
58697;SDS011;44475;53.206;-6.106;2022-11-04T01:52:49;2.45;;;1.60;;
58697;SDS011;44475;53.206;-6.106;2022-11-04T01:55:22;3.08;;;1.70;;
58697;SDS011;44475;53.206;-6.106;2022-11-04T01:57:56;3.25;;;1.90;;
58697;SDS011;44475;53.206;-6.106;2022-11-04T02:00:26;2.55;;;1.70;;
58697;SDS011;44475;53.206;-6.106;2022-11-04T02:03:00;2.90;;;1.77;;
58697;SDS011;44475;53.206;-6.106;2022-11-04T02:05:30;2.97;;;1.88;;
58697;SDS011;44475;53.206;-6.106;2022-11-04T02:07:57;2.65;;;1.80;;
58697;SDS011;44475;53.206;-6.106;2022-11-04T02:10:27;2.30;;;1.65;;
58697;SDS011;44475;53.206;-6.106;2022-11-04T02:12:55;2.85;;;1.70;;
58697;SDS011;44475;53.206;-6.106;2022-11-04T02:15:38;3.67;;;1.90;;
58697;SDS011;44475;53.206;-6.106;2022-11-04T02:34:41;2.95;;;1.80;;
58697;SDS011;44475;53.206;-6.106;2022-11-04T02:43:40;3.10;;;1.70;;
58697;SDS011;44475;53.206;-6.106;2022-11-04T02:52:12;2.33;;;1.70;;
58697;SDS011;44475;53.206;-6.106;2022-11-04T02:55:04;3.22;;;1.85;;
58697;SDS011;44475;53.206;-6.106;2022-11-04T02:57:37;2.03;;;1.58;;
58697;SDS011;44475;53.206;-6.106;2022-11-04T03:00:07;2.47;;;1.73;;
58697;SDS011;44475;53.206;-6.106;2022-11-04T03:05:07;3.08;;;1.80;;
58697;SDS011;44475;53.206;-6.106;2022-11-04T03:07:38;2.65;;;1.70;;
58697;SDS011;44475;53.206;-6.106;2022-11-04T03:10:12;3.35;;;1.83;;
58697;SDS011;44475;53.206;-6.106;2022-11-04T03:12:45;2.60;;;1.70;;
58697;SDS011;44475;53.206;-6.106;2022-11-04T03:15:26;2.83;;;1.70;;
58697;SDS011;44475;53.206;-6.106;2022-11-04T03:18:03;3.13;;;1.70;;
58697;SDS011;44475;53.206;-6.106;2022-11-04T03:21:49;2.45;;;1.50;;
58697;SDS011;44475;53.206;-6.106;2022-11-04T03:24:19;2.00;;;1.60;;
58697;SDS011;44475;53.206;-6.106;2022-11-04T03:26:48;2.55;;;1.65;;
58697;SDS011;44475;53.206;-6.106;2022-11-04T03:29:34;2.60;;;1.60;;
58697;SDS011;44475;53.206;-6.106;2022-11-04T03:34:57;2.85;;;1.75;;
58697;SDS011;44475;53.206;-6.106;2022-11-04T03:37:24;2.70;;;1.70;;
58697;SDS011;44475;53.206;-6.106;2022-11-04T03:39:50;2.53;;;1.60;;
58697;SDS011;44475;53.206;-6.106;2022-11-04T03:42:16;2.35;;;1.50;;
58697;SDS011;44475;53.206;-6.106;2022-11-04T03:44:49;2.95;;;1.60;;
58697;SDS011;44475;53.206;-6.106;2022-11-04T03:47:18;2.25;;;1.70;;
58697;SDS011;44475;53.206;-6.106;2022-11-04T03:49:47;2.55;;;1.70;;
58697;SDS011;44475;53.206;-6.106;2022-11-04T03:52:14;2.25;;;1.60;;
58697;SDS011;44475;53.206;-6.106;2022-11-04T03:54:43;2.60;;;1.50;;
58697;SDS011;44475;53.206;-6.106;2022-11-04T03:59:43;2.88;;;1.50;;
58697;SDS011;44475;53.206;-6.106;2022-11-04T04:18:42;1.85;;;1.50;;
58697;SDS011;44475;53.206;-6.106;2022-11-04T04:21:14;2.10;;;1.50;;
58697;SDS011;44475;53.206;-6.106;2022-11-04T04:23:46;2.08;;;1.52;;
58697;SDS011;44475;53.206;-6.106;2022-11-04T04:26:34;3.17;;;1.50;;
58697;SDS011;44475;53.206;-6.106;2022-11-04T04:29:22;2.72;;;1.50;;
58697;SDS011;44475;53.206;-6.106;2022-11-04T04:31:52;1.63;;;1.40;;
58697;SDS011;44475;53.206;-6.106;2022-11-04T04:37:14;2.30;;;1.50;;
58697;SDS011;44475;53.206;-6.106;2022-11-04T04:39:46;1.48;;;1.30;;
58697;SDS011;44475;53.206;-6.106;2022-11-04T04:42:37;2.28;;;1.50;;
58697;SDS011;44475;53.206;-6.106;2022-11-04T04:48:00;1.73;;;1.50;;
58697;SDS011;44475;53.206;-6.106;2022-11-04T04:50:29;2.13;;;1.45;;
58697;SDS011;44475;53.206;-6.106;2022-11-04T04:55:28;1.77;;;1.50;;
58697;SDS011;44475;53.206;-6.106;2022-11-04T04:57:56;2.50;;;1.50;;
58697;SDS011;44475;53.206;-6.106;2022-11-04T05:00:22;1.42;;;1.30;;
58697;SDS011;44475;53.206;-6.106;2022-11-04T05:02:49;2.05;;;1.40;;
58697;SDS011;44475;53.206;-6.106;2022-11-04T05:05:16;1.60;;;1.50;;
58697;SDS011;44475;53.206;-6.106;2022-11-04T05:07:43;2.20;;;1.33;;
58697;SDS011;44475;53.206;-6.106;2022-11-04T05:10:11;1.65;;;1.40;;
58697;SDS011;44475;53.206;-6.106;2022-11-04T05:12:39;1.67;;;1.30;;
58697;SDS011;44475;53.206;-6.106;2022-11-04T05:15:25;1.40;;;1.30;;
58697;SDS011;44475;53.206;-6.106;2022-11-04T05:17:53;2.42;;;1.50;;
58697;SDS011;44475;53.206;-6.106;2022-11-04T05:20:21;1.83;;;1.30;;
58697;SDS011;44475;53.206;-6.106;2022-11-04T05:22:47;1.63;;;1.30;;
58697;SDS011;44475;53.206;-6.106;2022-11-04T05:25:14;2.05;;;1.35;;
58697;SDS011;44475;53.206;-6.106;2022-11-04T05:27:41;1.98;;;1.38;;
58697;SDS011;44475;53.206;-6.106;2022-11-04T05:30:07;1.65;;;1.40;;
58697;SDS011;44475;53.206;-6.106;2022-11-04T05:32:46;1.88;;;1.38;;
58697;SDS011;44475;53.206;-6.106;2022-11-04T05:35:12;1.45;;;1.30;;
58697;SDS011;44475;53.206;-6.106;2022-11-04T05:37:39;1.90;;;1.38;;
58697;SDS011;44475;53.206;-6.106;2022-11-04T05:40:05;1.75;;;1.40;;
58697;SDS011;44475;53.206;-6.106;2022-11-04T05:42:32;1.40;;;1.30;;
58697;SDS011;44475;53.206;-6.106;2022-11-04T05:44:58;2.15;;;1.30;;
58697;SDS011;44475;53.206;-6.106;2022-11-04T05:47:24;1.40;;;1.30;;
58697;SDS011;44475;53.206;-6.106;2022-11-04T05:49:50;2.13;;;1.42;;
58697;SDS011;44475;53.206;-6.106;2022-11-04T05:52:17;1.60;;;1.20;;
58697;SDS011;44475;53.206;-6.106;2022-11-04T05:54:43;1.30;;;1.20;;
58697;SDS011;44475;53.206;-6.106;2022-11-04T05:57:09;1.60;;;1.30;;
58697;SDS011;44475;53.206;-6.106;2022-11-04T05:59:35;1.40;;;1.30;;
58697;SDS011;44475;53.206;-6.106;2022-11-04T06:02:02;1.08;;;1.08;;
58697;SDS011;44475;53.206;-6.106;2022-11-04T06:04:28;1.35;;;1.25;;
58697;SDS011;44475;53.206;-6.106;2022-11-04T06:06:54;1.10;;;1.10;;
58697;SDS011;44475;53.206;-6.106;2022-11-04T06:09:20;2.28;;;1.30;;
58697;SDS011;44475;53.206;-6.106;2022-11-04T06:12:13;1.30;;;1.20;;
58697;SDS011;44475;53.206;-6.106;2022-11-04T06:14:40;1.30;;;1.20;;
58697;SDS011;44475;53.206;-6.106;2022-11-04T06:17:08;1.67;;;1.23;;
58697;SDS011;44475;53.206;-6.106;2022-11-04T06:19:41;1.80;;;1.30;;
58697;SDS011;44475;53.206;-6.106;2022-11-04T06:22:11;2.30;;;1.30;;
58697;SDS011;44475;53.206;-6.106;2022-11-04T06:24:42;1.23;;;1.13;;
58697;SDS011;44475;53.206;-6.106;2022-11-04T06:27:08;1.40;;;1.30;;
58697;SDS011;44475;53.206;-6.106;2022-11-04T06:29:36;1.30;;;1.17;;
58697;SDS011;44475;53.206;-6.106;2022-11-04T06:32:04;2.05;;;1.20;;
58697;SDS011;44475;53.206;-6.106;2022-11-04T06:34:34;1.40;;;1.10;;
58697;SDS011;44475;53.206;-6.106;2022-11-04T06:37:01;2.28;;;1.45;;
58697;SDS011;44475;53.206;-6.106;2022-11-04T06:39:27;1.25;;;1.15;;
58697;SDS011;44475;53.206;-6.106;2022-11-04T06:41:54;1.30;;;1.20;;
58697;SDS011;44475;53.206;-6.106;2022-11-04T06:44:20;1.60;;;1.20;;
58697;SDS011;44475;53.206;-6.106;2022-11-04T06:46:47;1.25;;;1.15;;
58697;SDS011;44475;53.206;-6.106;2022-11-04T06:49:14;1.30;;;1.20;;
58697;SDS011;44475;53.206;-6.106;2022-11-04T06:51:42;1.30;;;1.20;;
58697;SDS011;44475;53.206;-6.106;2022-11-04T06:54:09;1.25;;;1.15;;
58697;SDS011;44475;53.206;-6.106;2022-11-04T06:56:36;1.20;;;1.10;;
58697;SDS011;44475;53.206;-6.106;2022-11-04T06:59:02;1.27;;;1.10;;
58697;SDS011;44475;53.206;-6.106;2022-11-04T07:01:29;1.30;;;1.20;;
58697;SDS011;44475;53.206;-6.106;2022-11-04T07:03:59;1.48;;;1.25;;
58697;SDS011;44475;53.206;-6.106;2022-11-04T07:06:26;1.10;;;1.10;;
58697;SDS011;44475;53.206;-6.106;2022-11-04T07:08:55;1.38;;;1.15;;
58697;SDS011;44475;53.206;-6.106;2022-11-04T07:11:23;1.30;;;1.13;;
58697;SDS011;44475;53.206;-6.106;2022-11-04T07:13:50;1.33;;;1.20;;
58697;SDS011;44475;53.206;-6.106;2022-11-04T07:16:17;1.10;;;1.10;;
58697;SDS011;44475;53.206;-6.106;2022-11-04T07:18:44;1.20;;;1.08;;
58697;SDS011;44475;53.206;-6.106;2022-11-04T07:21:10;1.30;;;1.10;;
58697;SDS011;44475;53.206;-6.106;2022-11-04T07:23:46;1.52;;;1.20;;
58697;SDS011;44475;53.206;-6.106;2022-11-04T07:26:12;1.10;;;1.10;;
58697;SDS011;44475;53.206;-6.106;2022-11-04T07:28:39;1.13;;;1.10;;
58697;SDS011;44475;53.206;-6.106;2022-11-04T07:31:06;1.20;;;1.10;;
58697;SDS011;44475;53.206;-6.106;2022-11-04T07:33:34;1.33;;;1.23;;
58697;SDS011;44475;53.206;-6.106;2022-11-04T07:36:09;1.27;;;1.17;;
58697;SDS011;44475;53.206;-6.106;2022-11-04T07:38:37;1.20;;;1.10;;
58697;SDS011;44475;53.206;-6.106;2022-11-04T07:41:03;1.38;;;1.27;;
58697;SDS011;44475;53.206;-6.106;2022-11-04T07:43:29;1.38;;;1.25;;
58697;SDS011;44475;53.206;-6.106;2022-11-04T07:46:00;1.10;;;1.10;;
58697;SDS011;44475;53.206;-6.106;2022-11-04T07:48:27;1.88;;;1.30;;
58697;SDS011;44475;53.206;-6.106;2022-11-04T07:50:55;1.20;;;1.10;;
58697;SDS011;44475;53.206;-6.106;2022-11-04T07:53:24;1.50;;;1.40;;
58697;SDS011;44475;53.206;-6.106;2022-11-04T07:55:55;1.10;;;1.10;;
58697;SDS011;44475;53.206;-6.106;2022-11-04T07:58:22;1.30;;;1.20;;
58697;SDS011;44475;53.206;-6.106;2022-11-04T08:00:50;1.30;;;1.20;;
58697;SDS011;44475;53.206;-6.106;2022-11-04T08:03:23;1.48;;;1.20;;
58697;SDS011;44475;53.206;-6.106;2022-11-04T08:05:56;1.10;;;1.10;;
58697;SDS011;44475;53.206;-6.106;2022-11-04T08:08:23;1.27;;;1.17;;
58697;SDS011;44475;53.206;-6.106;2022-11-04T08:10:51;1.95;;;1.20;;
58697;SDS011;44475;53.206;-6.106;2022-11-04T08:13:22;1.67;;;1.40;;
58697;SDS011;44475;53.206;-6.106;2022-11-04T08:15:51;1.75;;;1.30;;
58697;SDS011;44475;53.206;-6.106;2022-11-04T08:18:17;1.42;;;1.25;;
58697;SDS011;44475;53.206;-6.106;2022-11-04T08:20:50;1.30;;;1.20;;
58697;SDS011;44475;53.206;-6.106;2022-11-04T08:23:18;1.33;;;1.20;;
58697;SDS011;44475;53.206;-6.106;2022-11-04T08:25:44;1.77;;;1.20;;
58697;SDS011;44475;53.206;-6.106;2022-11-04T08:28:10;1.58;;;1.30;;
58697;SDS011;44475;53.206;-6.106;2022-11-04T08:30:54;1.55;;;1.30;;
58697;SDS011;44475;53.206;-6.106;2022-11-04T08:33:23;1.38;;;1.27;;
58697;SDS011;44475;53.206;-6.106;2022-11-04T08:35:51;1.65;;;1.40;;
58697;SDS011;44475;53.206;-6.106;2022-11-04T08:38:18;1.33;;;1.13;;
58697;SDS011;44475;53.206;-6.106;2022-11-04T08:40:44;1.45;;;1.25;;
58697;SDS011;44475;53.206;-6.106;2022-11-04T08:43:11;2.65;;;1.40;;
58697;SDS011;44475;53.206;-6.106;2022-11-04T08:45:42;1.30;;;1.20;;
58697;SDS011;44475;53.206;-6.106;2022-11-04T08:48:10;1.30;;;1.20;;
58697;SDS011;44475;53.206;-6.106;2022-11-04T08:50:40;1.33;;;1.23;;
58697;SDS011;44475;53.206;-6.106;2022-11-04T08:53:07;2.15;;;1.27;;
58697;SDS011;44475;53.206;-6.106;2022-11-04T08:55:34;1.45;;;1.35;;
58697;SDS011;44475;53.206;-6.106;2022-11-04T08:58:00;1.30;;;1.20;;
58697;SDS011;44475;53.206;-6.106;2022-11-04T09:00:27;1.63;;;1.30;;
58697;SDS011;44475;53.206;-6.106;2022-11-04T09:02:53;1.77;;;1.30;;
58697;SDS011;44475;53.206;-6.106;2022-11-04T09:05:20;1.35;;;1.25;;
58697;SDS011;44475;53.206;-6.106;2022-11-04T09:07:47;1.80;;;1.40;;
58697;SDS011;44475;53.206;-6.106;2022-11-04T09:10:13;1.45;;;1.17;;
58697;SDS011;44475;53.206;-6.106;2022-11-04T09:12:40;1.73;;;1.30;;
58697;SDS011;44475;53.206;-6.106;2022-11-04T09:15:08;2.08;;;1.50;;
58697;SDS011;44475;53.206;-6.106;2022-11-04T09:17:34;1.20;;;1.10;;
58697;SDS011;44475;53.206;-6.106;2022-11-04T09:20:01;1.20;;;1.10;;
58697;SDS011;44475;53.206;-6.106;2022-11-04T09:22:28;1.95;;;1.40;;
58697;SDS011;44475;53.206;-6.106;2022-11-04T09:24:54;1.80;;;1.30;;
58697;SDS011;44475;53.206;-6.106;2022-11-04T09:27:20;1.40;;;1.30;;
58697;SDS011;44475;53.206;-6.106;2022-11-04T09:29:47;1.27;;;1.17;;
58697;SDS011;44475;53.206;-6.106;2022-11-04T09:32:13;1.10;;;1.10;;
58697;SDS011;44475;53.206;-6.106;2022-11-04T09:34:39;1.40;;;1.30;;
58697;SDS011;44475;53.206;-6.106;2022-11-04T09:37:06;1.00;;;1.00;;
58697;SDS011;44475;53.206;-6.106;2022-11-04T09:39:32;1.77;;;1.33;;
58697;SDS011;44475;53.206;-6.106;2022-11-04T09:47:47;1.48;;;1.27;;
58697;SDS011;44475;53.206;-6.106;2022-11-04T09:50:21;1.23;;;1.13;;
58697;SDS011;44475;53.206;-6.106;2022-11-04T09:58:21;1.70;;;1.30;;
58697;SDS011;44475;53.206;-6.106;2022-11-04T10:00:50;2.15;;;1.10;;
58697;SDS011;44475;53.206;-6.106;2022-11-04T10:09:11;1.50;;;1.20;;
58697;SDS011;44475;53.206;-6.106;2022-11-04T10:14:40;1.40;;;1.30;;
58697;SDS011;44475;53.206;-6.106;2022-11-04T10:17:53;1.45;;;1.10;;
58697;SDS011;44475;53.206;-6.106;2022-11-04T10:27:36;1.60;;;1.30;;
58697;SDS011;44475;53.206;-6.106;2022-11-04T10:30:08;2.22;;;1.17;;
58697;SDS011;44475;53.206;-6.106;2022-11-04T10:32:50;1.23;;;1.13;;
58697;SDS011;44475;53.206;-6.106;2022-11-04T10:35:34;1.40;;;1.27;;
58697;SDS011;44475;53.206;-6.106;2022-11-04T10:38:18;1.80;;;1.20;;
58697;SDS011;44475;53.206;-6.106;2022-11-04T10:40:57;1.60;;;1.30;;
58697;SDS011;44475;53.206;-6.106;2022-11-04T10:48:59;1.27;;;1.13;;
58697;SDS011;44475;53.206;-6.106;2022-11-04T10:51:50;1.27;;;1.17;;
58697;SDS011;44475;53.206;-6.106;2022-11-04T10:54:19;2.65;;;1.30;;
58697;SDS011;44475;53.206;-6.106;2022-11-04T10:56:47;2.55;;;1.38;;
58697;SDS011;44475;53.206;-6.106;2022-11-04T10:59:25;1.40;;;1.13;;
58697;SDS011;44475;53.206;-6.106;2022-11-04T11:01:54;1.33;;;1.08;;
58697;SDS011;44475;53.206;-6.106;2022-11-04T11:04:32;1.20;;;1.10;;
58697;SDS011;44475;53.206;-6.106;2022-11-04T11:07:01;1.60;;;1.20;;
58697;SDS011;44475;53.206;-6.106;2022-11-04T11:09:34;1.20;;;1.10;;
58697;SDS011;44475;53.206;-6.106;2022-11-04T11:14:44;1.27;;;1.08;;
58697;SDS011;44475;53.206;-6.106;2022-11-04T11:17:55;1.00;;;1.00;;
58697;SDS011;44475;53.206;-6.106;2022-11-04T11:20:18;1.00;;;1.00;;
58697;SDS011;44475;53.206;-6.106;2022-11-04T11:25:27;1.40;;;1.10;;
58697;SDS011;44475;53.206;-6.106;2022-11-04T11:28:09;1.55;;;1.20;;
58697;SDS011;44475;53.206;-6.106;2022-11-04T11:36:17;1.45;;;1.13;;
58697;SDS011;44475;53.206;-6.106;2022-11-04T11:38:52;1.63;;;1.10;;
58697;SDS011;44475;53.206;-6.106;2022-11-04T11:41:22;2.65;;;1.20;;
58697;SDS011;44475;53.206;-6.106;2022-11-04T11:43:57;2.50;;;1.20;;
58697;SDS011;44475;53.206;-6.106;2022-11-04T11:46:33;1.67;;;1.10;;
58697;SDS011;44475;53.206;-6.106;2022-11-04T11:49:03;2.55;;;1.10;;
58697;SDS011;44475;53.206;-6.106;2022-11-04T11:51:31;1.38;;;1.15;;
58697;SDS011;44475;53.206;-6.106;2022-11-04T11:57:01;1.83;;;1.00;;
58697;SDS011;44475;53.206;-6.106;2022-11-04T11:59:51;1.25;;;1.10;;
58697;SDS011;44475;53.206;-6.106;2022-11-04T12:02:34;1.20;;;1.10;;
58697;SDS011;44475;53.206;-6.106;2022-11-04T12:05:40;1.50;;;1.15;;
58697;SDS011;44475;53.206;-6.106;2022-11-04T12:08:26;2.40;;;1.25;;
58697;SDS011;44475;53.206;-6.106;2022-11-04T12:11:06;1.83;;;1.10;;
58697;SDS011;44475;53.206;-6.106;2022-11-04T12:13:43;2.20;;;1.15;;
58697;SDS011;44475;53.206;-6.106;2022-11-04T12:21:21;1.48;;;1.25;;
58697;SDS011;44475;53.206;-6.106;2022-11-04T12:24:03;1.55;;;1.20;;
58697;SDS011;44475;53.206;-6.106;2022-11-04T12:29:44;1.25;;;1.13;;
58697;SDS011;44475;53.206;-6.106;2022-11-04T12:58:27;1.48;;;1.10;;
58697;SDS011;44475;53.206;-6.106;2022-11-04T13:01:13;1.20;;;1.10;;
58697;SDS011;44475;53.206;-6.106;2022-11-04T13:03:45;1.60;;;1.20;;
58697;SDS011;44475;53.206;-6.106;2022-11-04T13:06:21;1.75;;;1.25;;
58697;SDS011;44475;53.206;-6.106;2022-11-04T13:12:04;1.63;;;1.20;;
58697;SDS011;44475;53.206;-6.106;2022-11-04T13:14:41;1.70;;;1.17;;
58697;SDS011;44475;53.206;-6.106;2022-11-04T13:17:17;1.98;;;1.20;;
58697;SDS011;44475;53.206;-6.106;2022-11-04T13:19:50;1.25;;;1.08;;
58697;SDS011;44475;53.206;-6.106;2022-11-04T13:22:20;1.45;;;1.17;;
58697;SDS011;44475;53.206;-6.106;2022-11-04T13:25:11;1.00;;;1.00;;
58697;SDS011;44475;53.206;-6.106;2022-11-04T13:27:47;2.00;;;1.20;;
58697;SDS011;44475;53.206;-6.106;2022-11-04T13:30:21;2.25;;;1.08;;
58697;SDS011;44475;53.206;-6.106;2022-11-04T13:38:33;1.20;;;1.10;;
58697;SDS011;44475;53.206;-6.106;2022-11-04T13:44:04;0.90;;;0.90;;
58697;SDS011;44475;53.206;-6.106;2022-11-04T13:46:47;1.50;;;1.13;;
58697;SDS011;44475;53.206;-6.106;2022-11-04T13:52:15;1.50;;;1.10;;
58697;SDS011;44475;53.206;-6.106;2022-11-04T13:54:43;2.13;;;1.17;;
58697;SDS011;44475;53.206;-6.106;2022-11-04T13:57:18;2.28;;;1.10;;
58697;SDS011;44475;53.206;-6.106;2022-11-04T14:18:30;1.85;;;1.30;;
58697;SDS011;44475;53.206;-6.106;2022-11-04T14:21:05;1.02;;;1.00;;
58697;SDS011;44475;53.206;-6.106;2022-11-04T14:23:47;1.60;;;1.10;;
58697;SDS011;44475;53.206;-6.106;2022-11-04T14:26:20;1.20;;;1.10;;
58697;SDS011;44475;53.206;-6.106;2022-11-04T14:29:07;1.02;;;1.00;;
58697;SDS011;44475;53.206;-6.106;2022-11-04T14:31:48;1.50;;;1.20;;
58697;SDS011;44475;53.206;-6.106;2022-11-04T14:34:26;1.20;;;1.10;;
58697;SDS011;44475;53.206;-6.106;2022-11-04T14:36:56;1.65;;;1.30;;
58697;SDS011;44475;53.206;-6.106;2022-11-04T14:39:32;1.58;;;1.20;;
58697;SDS011;44475;53.206;-6.106;2022-11-04T14:42:04;1.35;;;1.20;;
58697;SDS011;44475;53.206;-6.106;2022-11-04T14:48:18;1.35;;;1.20;;
58697;SDS011;44475;53.206;-6.106;2022-11-04T14:50:46;2.55;;;1.30;;
58697;SDS011;44475;53.206;-6.106;2022-11-04T14:53:33;1.70;;;1.30;;
58697;SDS011;44475;53.206;-6.106;2022-11-04T14:56:22;1.23;;;1.13;;
58697;SDS011;44475;53.206;-6.106;2022-11-04T15:01:21;2.15;;;1.27;;
58697;SDS011;44475;53.206;-6.106;2022-11-04T15:03:49;1.45;;;1.20;;
58697;SDS011;44475;53.206;-6.106;2022-11-04T15:06:25;1.63;;;1.25;;
58697;SDS011;44475;53.206;-6.106;2022-11-04T15:08:53;1.35;;;1.20;;
58697;SDS011;44475;53.206;-6.106;2022-11-04T15:11:24;1.33;;;1.23;;
58697;SDS011;44475;53.206;-6.106;2022-11-04T15:14:19;2.47;;;1.30;;
58697;SDS011;44475;53.206;-6.106;2022-11-04T15:16:51;1.60;;;1.30;;
58697;SDS011;44475;53.206;-6.106;2022-11-04T15:19:33;2.33;;;1.30;;
58697;SDS011;44475;53.206;-6.106;2022-11-04T15:22:00;2.22;;;1.40;;
58697;SDS011;44475;53.206;-6.106;2022-11-04T15:24:29;1.77;;;1.38;;
58697;SDS011;44475;53.206;-6.106;2022-11-04T15:26:57;2.00;;;1.50;;
58697;SDS011;44475;53.206;-6.106;2022-11-04T15:29:29;1.75;;;1.30;;
58697;SDS011;44475;53.206;-6.106;2022-11-04T15:32:00;1.83;;;1.40;;
58697;SDS011;44475;53.206;-6.106;2022-11-04T15:34:29;2.00;;;1.50;;
58697;SDS011;44475;53.206;-6.106;2022-11-04T15:36:57;1.75;;;1.33;;
58697;SDS011;44475;53.206;-6.106;2022-11-04T15:39:42;1.30;;;1.20;;
58697;SDS011;44475;53.206;-6.106;2022-11-04T15:42:13;1.70;;;1.50;;
58697;SDS011;44475;53.206;-6.106;2022-11-04T15:45:24;1.50;;;1.38;;
58697;SDS011;44475;53.206;-6.106;2022-11-04T15:56:40;2.20;;;1.70;;
58697;SDS011;44475;53.206;-6.106;2022-11-04T15:59:15;2.17;;;1.50;;
58697;SDS011;44475;53.206;-6.106;2022-11-04T16:01:46;1.70;;;1.40;;
58697;SDS011;44475;53.206;-6.106;2022-11-04T16:04:15;1.70;;;1.40;;
58697;SDS011;44475;53.206;-6.106;2022-11-04T16:06:44;1.58;;;1.42;;
58697;SDS011;44475;53.206;-6.106;2022-11-04T16:09:20;1.40;;;1.30;;
58697;SDS011;44475;53.206;-6.106;2022-11-04T16:14:45;2.15;;;1.60;;
58697;SDS011;44475;53.206;-6.106;2022-11-04T16:17:13;2.47;;;1.50;;
58697;SDS011;44475;53.206;-6.106;2022-11-04T16:19:39;2.00;;;1.40;;
58697;SDS011;44475;53.206;-6.106;2022-11-04T16:22:23;1.77;;;1.30;;
58697;SDS011;44475;53.206;-6.106;2022-11-04T16:24:59;2.05;;;1.42;;
58697;SDS011;44475;53.206;-6.106;2022-11-04T16:27:27;1.45;;;1.35;;
58697;SDS011;44475;53.206;-6.106;2022-11-04T16:32:50;1.92;;;1.40;;
58697;SDS011;44475;53.206;-6.106;2022-11-04T16:35:25;1.88;;;1.50;;
58697;SDS011;44475;53.206;-6.106;2022-11-04T16:37:52;1.50;;;1.40;;
58697;SDS011;44475;53.206;-6.106;2022-11-04T16:40:20;1.55;;;1.42;;
58697;SDS011;44475;53.206;-6.106;2022-11-04T16:42:48;2.20;;;1.50;;
58697;SDS011;44475;53.206;-6.106;2022-11-04T16:46:00;1.85;;;1.50;;
58697;SDS011;44475;53.206;-6.106;2022-11-04T16:48:20;2.35;;;1.63;;
58697;SDS011;44475;53.206;-6.106;2022-11-04T16:50:48;1.98;;;1.52;;
58697;SDS011;44475;53.206;-6.106;2022-11-04T16:53:15;1.85;;;1.58;;
58697;SDS011;44475;53.206;-6.106;2022-11-04T16:55:42;1.85;;;1.55;;
58697;SDS011;44475;53.206;-6.106;2022-11-04T16:58:12;1.52;;;1.40;;
58697;SDS011;44475;53.206;-6.106;2022-11-04T17:00:42;2.08;;;1.50;;
58697;SDS011;44475;53.206;-6.106;2022-11-04T17:03:18;1.63;;;1.50;;
58697;SDS011;44475;53.206;-6.106;2022-11-04T17:05:52;1.63;;;1.45;;
58697;SDS011;44475;53.206;-6.106;2022-11-04T17:08:20;2.72;;;1.67;;
58697;SDS011;44475;53.206;-6.106;2022-11-04T17:10:51;2.40;;;1.70;;
58697;SDS011;44475;53.206;-6.106;2022-11-04T17:13:18;2.80;;;1.80;;
58697;SDS011;44475;53.206;-6.106;2022-11-04T17:15:44;1.95;;;1.60;;
58697;SDS011;44475;53.206;-6.106;2022-11-04T17:18:14;2.70;;;1.80;;
58697;SDS011;44475;53.206;-6.106;2022-11-04T17:20:42;2.60;;;1.98;;
58697;SDS011;44475;53.206;-6.106;2022-11-04T17:23:12;2.92;;;1.92;;
58697;SDS011;44475;53.206;-6.106;2022-11-04T17:25:39;2.53;;;1.88;;
58697;SDS011;44475;53.206;-6.106;2022-11-04T17:28:06;2.97;;;1.90;;
58697;SDS011;44475;53.206;-6.106;2022-11-04T17:30:32;3.03;;;1.90;;
58697;SDS011;44475;53.206;-6.106;2022-11-04T17:32:59;2.75;;;2.00;;
58697;SDS011;44475;53.206;-6.106;2022-11-04T17:35:25;2.45;;;1.90;;
58697;SDS011;44475;53.206;-6.106;2022-11-04T17:37:52;3.13;;;2.10;;
58697;SDS011;44475;53.206;-6.106;2022-11-04T17:40:19;2.70;;;2.00;;
58697;SDS011;44475;53.206;-6.106;2022-11-04T17:42:47;4.43;;;2.40;;
58697;SDS011;44475;53.206;-6.106;2022-11-04T17:45:32;3.00;;;1.92;;
58697;SDS011;44475;53.206;-6.106;2022-11-04T17:48:05;3.60;;;2.10;;
58697;SDS011;44475;53.206;-6.106;2022-11-04T17:50:32;3.30;;;2.20;;
58697;SDS011;44475;53.206;-6.106;2022-11-04T17:52:58;3.53;;;2.30;;
58697;SDS011;44475;53.206;-6.106;2022-11-04T17:55:25;3.95;;;2.38;;
58697;SDS011;44475;53.206;-6.106;2022-11-04T17:57:51;3.47;;;2.40;;
58697;SDS011;44475;53.206;-6.106;2022-11-04T18:03:05;3.90;;;2.47;;
58697;SDS011;44475;53.206;-6.106;2022-11-04T18:05:32;3.78;;;2.35;;
58697;SDS011;44475;53.206;-6.106;2022-11-04T18:07:58;3.78;;;2.30;;
58697;SDS011;44475;53.206;-6.106;2022-11-04T18:10:26;4.53;;;2.72;;
58697;SDS011;44475;53.206;-6.106;2022-11-04T18:12:52;3.63;;;2.35;;
58697;SDS011;44475;53.206;-6.106;2022-11-04T18:15:19;4.50;;;2.50;;
58697;SDS011;44475;53.206;-6.106;2022-11-04T18:17:45;3.80;;;2.40;;
58697;SDS011;44475;53.206;-6.106;2022-11-04T18:20:14;3.90;;;2.70;;
58697;SDS011;44475;53.206;-6.106;2022-11-04T18:22:41;3.80;;;2.47;;